Time;durP1;ratioP1;P1;durP2;ratioP2;P2;SDS_P1;SDS_P2;PMS_P1;PMS_P2;Temp;Humidity;BMP_temperature;BMP_pressure;BME280_temperature;BME280_humidity;BME280_pressure;Samples;Min_cycle;Max_cycle;Signal;HPM_P1;HPM_P2
2022/07/21 00:01:12;;;;;;;23.42;17.13;;;;;;;;;;5044013;28;20729;-73
2022/07/21 00:03:38;;;;;;;25.35;17.58;;;;;;;;;;5045501;28;20201;-72
2022/07/21 00:06:04;;;;;;;21.85;17.38;;;;;;;;;;5043505;28;20279;-73
2022/07/21 00:08:29;;;;;;;21.38;16.70;;;;;;;;;;5051127;28;20185;-73
2022/07/21 00:10:55;;;;;;;22.92;17.08;;;;;;;;;;5045502;28;20664;-74
2022/07/21 00:13:20;;;;;;;24.48;17.80;;;;;;;;;;5044950;28;20218;-74
2022/07/21 00:15:46;;;;;;;24.17;18.00;;;;;;;;;;5044292;28;20232;-73
2022/07/21 00:18:12;;;;;;;24.15;18.35;;;;;;;;;;5048723;28;20193;-73
2022/07/21 00:20:38;;;;;;;23.35;18.52;;;;;;;;;;5059289;28;20181;-74
2022/07/21 00:23:03;;;;;;;25.88;19.63;;;;;;;;;;5055018;28;20308;-73
2022/07/21 00:25:29;;;;;;;26.30;18.90;;;;;;;;;;5058901;28;20263;-73
2022/07/21 00:27:54;;;;;;;23.15;19.67;;;;;;;;;;5053975;28;20186;-73
2022/07/21 00:30:20;;;;;;;22.70;18.80;;;;;;;;;;5056917;28;20185;-73
2022/07/21 00:32:45;;;;;;;25.90;20.20;;;;;;;;;;5048693;28;20338;-73
2022/07/21 00:35:11;;;;;;;25.58;19.92;;;;;;;;;;5046318;28;20186;-72
2022/07/21 00:37:37;;;;;;;25.33;20.02;;;;;;;;;;5059118;28;20557;-72
2022/07/21 00:40:05;;;;;;;27.63;20.63;;;;;;;;;;5053585;28;20325;-71
2022/07/21 00:42:31;;;;;;;23.60;19.50;;;;;;;;;;5063185;28;20306;-72
2022/07/21 00:44:58;;;;;;;27.15;20.17;;;;;;;;;;5061739;28;20216;-72
2022/07/21 00:47:25;;;;;;;26.42;19.45;;;;;;;;;;5054897;28;20181;-73
2022/07/21 00:49:51;;;;;;;30.20;21.15;;;;;;;;;;5051040;28;20667;-75
2022/07/21 00:52:16;;;;;;;25.58;20.50;;;;;;;;;;5049283;28;20189;-75
2022/07/21 00:54:43;;;;;;;37.58;24.65;;;;;;;;;;5047335;28;20188;-76
2022/07/21 00:57:09;;;;;;;38.17;25.45;;;;;;;;;;5056920;28;20185;-76
2022/07/21 00:59:35;;;;;;;26.83;19.48;;;;;;;;;;5062873;28;20250;-75
2022/07/21 01:02:00;;;;;;;23.65;18.90;;;;;;;;;;5052888;28;20273;-74
2022/07/21 01:04:26;;;;;;;23.92;16.77;;;;;;;;;;5048897;28;20300;-73
2022/07/21 01:06:53;;;;;;;22.05;16.85;;;;;;;;;;5066689;28;20674;-73
2022/07/21 01:09:19;;;;;;;20.95;17.73;;;;;;;;;;5047126;28;20484;-74
2022/07/21 01:11:46;;;;;;;23.52;18.02;;;;;;;;;;5052443;28;20220;-73
2022/07/21 01:14:11;;;;;;;18.20;15.15;;;;;;;;;;5058932;28;20235;-73
2022/07/21 01:16:37;;;;;;;19.08;14.80;;;;;;;;;;5060344;28;20200;-74
2022/07/21 01:19:03;;;;;;;18.08;15.05;;;;;;;;;;5053636;28;20644;-74
2022/07/21 01:21:34;;;;;;;22.30;15.88;;;;;;;;;;5046289;28;20250;-74
2022/07/21 01:24:01;;;;;;;19.17;15.80;;;;;;;;;;5063000;28;20606;-74
2022/07/21 01:26:27;;;;;;;19.73;15.60;;;;;;;;;;5045951;28;20182;-74
2022/07/21 01:28:52;;;;;;;20.80;15.65;;;;;;;;;;5069357;28;20192;-74
2022/07/21 01:31:18;;;;;;;20.23;15.57;;;;;;;;;;5047004;28;20209;-74
2022/07/21 01:33:43;;;;;;;22.95;16.77;;;;;;;;;;5046664;28;20246;-73
2022/07/21 01:36:09;;;;;;;20.23;15.85;;;;;;;;;;5046583;28;20196;-73
2022/07/21 01:41:31;;;;;;;22.55;16.58;;;;;;;;;;5068646;28;20210;-73
2022/07/21 01:43:59;;;;;;;21.17;15.95;;;;;;;;;;5054929;28;20235;-73
2022/07/21 01:46:24;;;;;;;22.90;17.75;;;;;;;;;;5044488;28;20314;-73
2022/07/21 01:48:50;;;;;;;20.85;16.38;;;;;;;;;;5063386;28;20259;-73
2022/07/21 01:51:16;;;;;;;20.08;16.70;;;;;;;;;;5053204;28;20197;-73
2022/07/21 01:53:41;;;;;;;21.05;17.13;;;;;;;;;;5059312;28;20170;-72
2022/07/21 01:56:07;;;;;;;21.77;17.27;;;;;;;;;;5057246;28;20215;-72
2022/07/21 01:58:33;;;;;;;19.40;16.50;;;;;;;;;;5049306;28;20192;-73
2022/07/21 02:00:58;;;;;;;22.80;17.60;;;;;;;;;;5046000;28;20256;-73
2022/07/21 02:03:24;;;;;;;22.15;17.17;;;;;;;;;;5047657;28;20272;-72
2022/07/21 02:05:49;;;;;;;23.70;18.00;;;;;;;;;;5056705;28;20839;-72
2022/07/21 02:08:15;;;;;;;21.08;15.70;;;;;;;;;;5052304;28;20259;-72
2022/07/21 02:10:40;;;;;;;20.15;16.17;;;;;;;;;;5045508;28;20273;-71
2022/07/21 02:13:06;;;;;;;21.17;16.73;;;;;;;;;;5057382;28;20657;-71
2022/07/21 02:15:31;;;;;;;20.63;16.00;;;;;;;;;;5064390;28;20588;-71
2022/07/21 02:17:58;;;;;;;21.35;16.95;;;;;;;;;;5050902;28;20185;-71
2022/07/21 02:20:24;;;;;;;19.63;16.50;;;;;;;;;;5046861;28;20668;-70
2022/07/21 02:22:49;;;;;;;20.95;17.75;;;;;;;;;;5045838;28;20209;-71
2022/07/21 02:25:16;;;;;;;22.52;17.27;;;;;;;;;;5059042;28;20590;-71
2022/07/21 02:27:45;;;;;;;21.45;16.85;;;;;;;;;;5057958;28;20181;-71
2022/07/21 02:30:13;;;;;;;20.25;16.92;;;;;;;;;;5047578;28;20245;-71
2022/07/21 02:32:38;;;;;;;25.10;17.50;;;;;;;;;;5061703;28;20341;-71
2022/07/21 02:35:05;;;;;;;22.10;17.85;;;;;;;;;;5050387;28;20217;-72
2022/07/21 02:37:30;;;;;;;27.52;20.45;;;;;;;;;;5054864;28;20188;-69
2022/07/21 02:39:55;;;;;;;27.42;21.27;;;;;;;;;;5053806;28;20195;-70
2022/07/21 02:42:21;;;;;;;29.08;22.27;;;;;;;;;;5048927;28;20557;-70
2022/07/21 02:44:46;;;;;;;30.08;23.25;;;;;;;;;;5051867;28;20199;-71
2022/07/21 02:47:12;;;;;;;30.17;24.30;;;;;;;;;;5045659;28;20229;-71
2022/07/21 02:49:37;;;;;;;29.33;23.98;;;;;;;;;;5048651;28;20189;-71
2022/07/21 02:52:03;;;;;;;29.15;24.15;;;;;;;;;;5055726;28;20243;-71
2022/07/21 02:54:29;;;;;;;28.77;22.05;;;;;;;;;;5046317;28;20829;-69
2022/07/21 02:56:54;;;;;;;25.05;21.60;;;;;;;;;;5054313;28;20291;-71
2022/07/21 02:59:19;;;;;;;25.98;21.42;;;;;;;;;;5046748;28;20178;-72
2022/07/21 03:01:45;;;;;;;26.77;21.95;;;;;;;;;;5055751;28;20188;-72
2022/07/21 03:04:11;;;;;;;25.48;21.35;;;;;;;;;;5058212;28;20719;-73
2022/07/21 03:06:37;;;;;;;26.15;21.20;;;;;;;;;;5052799;28;20588;-72
2022/07/21 03:09:03;;;;;;;24.20;19.73;;;;;;;;;;5055790;28;20554;-72
2022/07/21 03:11:28;;;;;;;22.90;20.25;;;;;;;;;;5045882;28;20185;-71
2022/07/21 03:13:53;;;;;;;21.83;18.70;;;;;;;;;;5055965;28;20611;-72
2022/07/21 03:16:19;;;;;;;24.25;19.55;;;;;;;;;;5045459;28;20298;-72
2022/07/21 03:18:44;;;;;;;22.48;19.08;;;;;;;;;;5050411;28;20268;-72
2022/07/21 03:21:09;;;;;;;24.52;19.73;;;;;;;;;;5061486;28;20173;-72
2022/07/21 03:23:35;;;;;;;24.95;20.02;;;;;;;;;;5054743;28;20244;-72
2022/07/21 03:26:00;;;;;;;25.08;19.60;;;;;;;;;;5050582;28;20234;-72
2022/07/21 03:28:25;;;;;;;22.92;18.10;;;;;;;;;;5068519;28;20187;-72
2022/07/21 03:30:51;;;;;;;23.35;20.05;;;;;;;;;;5063355;28;20207;-71
2022/07/21 03:33:17;;;;;;;24.17;19.65;;;;;;;;;;5056357;28;20382;-71
2022/07/21 03:35:42;;;;;;;28.67;20.45;;;;;;;;;;5062727;28;20188;-70
2022/07/21 03:38:08;;;;;;;27.88;21.23;;;;;;;;;;5053629;28;20188;-72
2022/07/21 03:40:35;;;;;;;25.35;20.75;;;;;;;;;;5048856;28;20183;-71
2022/07/21 03:43:03;;;;;;;26.45;20.92;;;;;;;;;;5056955;28;20268;-72
2022/07/21 03:45:30;;;;;;;29.95;23.67;;;;;;;;;;5061488;28;20185;-72
2022/07/21 03:47:57;;;;;;;26.45;22.15;;;;;;;;;;5046368;28;20671;-70
2022/07/21 03:50:22;;;;;;;27.50;22.73;;;;;;;;;;5058653;28;20268;-70
2022/07/21 03:52:47;;;;;;;24.55;21.42;;;;;;;;;;5048096;28;20509;-72
2022/07/21 03:55:17;;;;;;;26.58;21.92;;;;;;;;;;5045706;28;20272;-68
2022/07/21 03:57:45;;;;;;;24.63;21.33;;;;;;;;;;5054826;28;20188;-71
2022/07/21 04:00:16;;;;;;;27.20;21.73;;;;;;;;;;5052709;28;20300;-72
2022/07/21 04:02:44;;;;;;;24.98;20.38;;;;;;;;;;5055223;28;20770;-71
2022/07/21 04:05:12;;;;;;;22.92;19.13;;;;;;;;;;5058769;28;20176;-70
2022/07/21 04:07:42;;;;;;;22.30;19.15;;;;;;;;;;5043076;28;20533;-71
2022/07/21 04:10:11;;;;;;;22.38;18.48;;;;;;;;;;5043730;28;20192;-71
2022/07/21 04:12:37;;;;;;;21.75;17.40;;;;;;;;;;5043851;28;20668;-71
2022/07/21 04:15:05;;;;;;;25.05;19.23;;;;;;;;;;5043409;28;20191;-71
2022/07/21 04:17:30;;;;;;;21.90;18.48;;;;;;;;;;5055936;28;20630;-71
2022/07/21 04:19:55;;;;;;;25.95;19.58;;;;;;;;;;5050435;28;20277;-71
2022/07/21 04:22:21;;;;;;;25.63;19.52;;;;;;;;;;5052919;28;20192;-71
2022/07/21 04:24:46;;;;;;;23.45;19.27;;;;;;;;;;5059139;28;20691;-71
2022/07/21 04:27:11;;;;;;;22.13;19.13;;;;;;;;;;5047800;28;20181;-70
2022/07/21 04:29:37;;;;;;;24.10;19.55;;;;;;;;;;5049224;28;20207;-70
2022/07/21 04:32:02;;;;;;;22.80;18.35;;;;;;;;;;5044453;28;20255;-68
2022/07/21 04:34:28;;;;;;;24.58;20.23;;;;;;;;;;5056065;28;20208;-68
2022/07/21 04:36:54;;;;;;;25.38;20.33;;;;;;;;;;5062155;28;20234;-66
2022/07/21 04:39:19;;;;;;;25.25;20.65;;;;;;;;;;5054522;28;20212;-67
2022/07/21 04:41:44;;;;;;;24.20;19.38;;;;;;;;;;5054862;28;20216;-67
2022/07/21 04:44:10;;;;;;;25.27;19.88;;;;;;;;;;5055437;28;20656;-66
2022/07/21 04:46:35;;;;;;;24.45;20.95;;;;;;;;;;5046453;28;20242;-68
2022/07/21 04:49:00;;;;;;;27.85;21.98;;;;;;;;;;5062813;28;20207;-67
2022/07/21 04:51:26;;;;;;;24.35;21.20;;;;;;;;;;5048506;28;20224;-68
2022/07/21 04:53:51;;;;;;;27.48;23.08;;;;;;;;;;5044834;28;20295;-68
2022/07/21 04:56:16;;;;;;;25.98;22.77;;;;;;;;;;5053055;28;20185;-67
2022/07/21 04:58:42;;;;;;;29.17;24.25;;;;;;;;;;5049375;28;20682;-68
2022/07/21 05:01:07;;;;;;;33.97;24.83;;;;;;;;;;5048044;28;20181;-68
2022/07/21 05:03:32;;;;;;;30.25;23.65;;;;;;;;;;5042778;28;20296;-68
2022/07/21 05:05:58;;;;;;;32.03;25.90;;;;;;;;;;5053177;28;20692;-68
2022/07/21 05:08:26;;;;;;;30.92;25.70;;;;;;;;;;5043809;28;20189;-69
2022/07/21 05:10:51;;;;;;;31.30;24.58;;;;;;;;;;5045286;28;20231;-69
2022/07/21 05:13:17;;;;;;;30.15;25.30;;;;;;;;;;5047331;28;20197;-71
2022/07/21 05:15:42;;;;;;;32.40;26.88;;;;;;;;;;5054111;28;20692;-70
2022/07/21 05:18:08;;;;;;;35.22;27.85;;;;;;;;;;5047269;28;20193;-69
2022/07/21 05:20:34;;;;;;;38.80;29.52;;;;;;;;;;5040789;28;20656;-70
2022/07/21 05:22:59;;;;;;;33.95;27.23;;;;;;;;;;5049585;28;20307;-68
2022/07/21 05:25:24;;;;;;;33.92;27.67;;;;;;;;;;5046517;28;20586;-68
2022/07/21 05:27:50;;;;;;;36.58;28.02;;;;;;;;;;5058219;28;20180;-69
2022/07/21 05:30:15;;;;;;;32.67;25.30;;;;;;;;;;5047250;28;20190;-67
2022/07/21 05:32:40;;;;;;;35.20;28.38;;;;;;;;;;5052036;28;20208;-66
2022/07/21 05:35:10;;;;;;;36.22;25.45;;;;;;;;;;5061113;28;20177;-65
2022/07/21 05:37:37;;;;;;;33.05;26.38;;;;;;;;;;5054856;28;20185;-65
2022/07/21 05:40:03;;;;;;;33.85;27.38;;;;;;;;;;5047277;28;20191;-66
2022/07/21 05:42:28;;;;;;;39.00;28.98;;;;;;;;;;5067824;28;20224;-66
2022/07/21 05:44:55;;;;;;;35.30;28.67;;;;;;;;;;5054049;28;20232;-67
2022/07/21 05:47:20;;;;;;;39.17;28.77;;;;;;;;;;5055497;28;20577;-68
2022/07/21 05:49:45;;;;;;;36.53;28.52;;;;;;;;;;5050391;28;20213;-69
2022/07/21 05:52:11;;;;;;;36.63;27.38;;;;;;;;;;5056615;28;20288;-68
2022/07/21 05:54:36;;;;;;;33.38;27.00;;;;;;;;;;5046869;28;20261;-66
2022/07/21 05:57:02;;;;;;;34.05;27.23;;;;;;;;;;5057281;28;20181;-67
2022/07/21 05:59:28;;;;;;;33.08;26.88;;;;;;;;;;5056331;28;20208;-65
2022/07/21 06:01:53;;;;;;;33.92;27.52;;;;;;;;;;5052046;28;20523;-66
2022/07/21 06:04:19;;;;;;;34.78;27.00;;;;;;;;;;5049056;28;20213;-67
2022/07/21 06:06:44;;;;;;;37.75;27.88;;;;;;;;;;5045980;28;20296;-68
2022/07/21 06:09:09;;;;;;;29.42;24.67;;;;;;;;;;5046760;28;20180;-66
2022/07/21 06:11:35;;;;;;;34.35;27.73;;;;;;;;;;5050161;28;20709;-67
2022/07/21 06:14:00;;;;;;;32.60;25.30;;;;;;;;;;5047338;28;20186;-67
2022/07/21 06:16:25;;;;;;;34.63;27.52;;;;;;;;;;5057123;28;20177;-67
2022/07/21 06:18:51;;;;;;;34.15;27.48;;;;;;;;;;5056857;28;20429;-67
2022/07/21 06:21:17;;;;;;;33.33;27.60;;;;;;;;;;5052573;28;20184;-68
2022/07/21 06:23:43;;;;;;;32.50;26.75;;;;;;;;;;5057907;28;20737;-68
2022/07/21 06:26:08;;;;;;;31.60;25.38;;;;;;;;;;5057541;28;20184;-66
2022/07/21 06:28:33;;;;;;;32.28;26.90;;;;;;;;;;5064271;28;20184;-68
2022/07/21 06:30:59;;;;;;;35.28;28.30;;;;;;;;;;5057803;28;20205;-66
2022/07/21 06:33:24;;;;;;;31.58;25.20;;;;;;;;;;5053671;28;21990;-66
2022/07/21 06:35:50;;;;;;;31.77;25.88;;;;;;;;;;5049078;28;20242;-66
2022/07/21 06:38:15;;;;;;;31.50;24.52;;;;;;;;;;5058013;28;20304;-67
2022/07/21 06:40:40;;;;;;;28.52;24.25;;;;;;;;;;5045411;28;20637;-66
2022/07/21 06:43:06;;;;;;;32.67;24.88;;;;;;;;;;5045173;28;20295;-67
2022/07/21 06:45:31;;;;;;;31.52;25.73;;;;;;;;;;5056084;28;20190;-67
2022/07/21 06:48:02;;;;;;;28.15;24.63;;;;;;;;;;5057210;28;20188;-68
2022/07/21 06:50:28;;;;;;;30.65;25.30;;;;;;;;;;5063189;28;20315;-68
2022/07/21 06:52:53;;;;;;;31.15;25.50;;;;;;;;;;5053384;28;20272;-67
2022/07/21 06:55:19;;;;;;;28.98;23.27;;;;;;;;;;5069061;28;20191;-67
2022/07/21 06:57:44;;;;;;;29.83;24.45;;;;;;;;;;5063055;28;20184;-66
2022/07/21 07:00:10;;;;;;;29.45;24.17;;;;;;;;;;5060341;28;20664;-65
2022/07/21 07:02:35;;;;;;;26.75;23.40;;;;;;;;;;5053443;28;20215;-65
2022/07/21 07:05:01;;;;;;;24.88;21.35;;;;;;;;;;5059411;28;20197;-66
2022/07/21 07:07:29;;;;;;;24.10;20.27;;;;;;;;;;5061360;28;20187;-65
2022/07/21 07:09:54;;;;;;;23.08;19.85;;;;;;;;;;5048726;28;20570;-65
2022/07/21 07:12:20;;;;;;;26.77;21.33;;;;;;;;;;5061244;28;20188;-64
2022/07/21 07:14:45;;;;;;;25.58;21.60;;;;;;;;;;5056425;28;20188;-66
2022/07/21 07:17:16;;;;;;;26.00;22.30;;;;;;;;;;5053492;28;20174;-68
2022/07/21 07:19:41;;;;;;;24.92;21.95;;;;;;;;;;5062323;28;20169;-66
2022/07/21 07:22:06;;;;;;;23.73;20.63;;;;;;;;;;5054048;28;20186;-64
2022/07/21 07:24:32;;;;;;;25.15;21.95;;;;;;;;;;5059868;28;20225;-66
2022/07/21 07:26:57;;;;;;;28.13;22.40;;;;;;;;;;5054153;28;20212;-65
2022/07/21 07:29:22;;;;;;;29.38;23.83;;;;;;;;;;5059284;28;20277;-67
2022/07/21 07:31:48;;;;;;;26.83;22.58;;;;;;;;;;5060713;28;20212;-66
2022/07/21 07:34:13;;;;;;;25.05;20.33;;;;;;;;;;5058084;28;20173;-66
2022/07/21 07:36:39;;;;;;;31.35;23.80;;;;;;;;;;5060242;28;20181;-65
2022/07/21 07:39:04;;;;;;;29.75;24.02;;;;;;;;;;5062111;28;20821;-65
2022/07/21 07:41:31;;;;;;;29.27;24.35;;;;;;;;;;5061601;28;20713;-66
2022/07/21 07:43:58;;;;;;;25.88;21.35;;;;;;;;;;5061042;28;20251;-66
2022/07/21 07:46:23;;;;;;;30.58;23.45;;;;;;;;;;5059896;28;20234;-67
2022/07/21 07:48:48;;;;;;;27.58;23.48;;;;;;;;;;5061443;28;20648;-66
2022/07/21 07:51:14;;;;;;;30.58;22.55;;;;;;;;;;5064513;28;20184;-66
2022/07/21 07:53:40;;;;;;;28.25;22.80;;;;;;;;;;5060503;28;20628;-66
2022/07/21 07:56:07;;;;;;;29.35;23.02;;;;;;;;;;5063751;28;20192;-67
2022/07/21 07:58:33;;;;;;;26.92;20.50;;;;;;;;;;5061281;28;20652;-64
2022/07/21 08:00:58;;;;;;;27.05;22.35;;;;;;;;;;5063580;28;20328;-66
2022/07/21 08:03:25;;;;;;;30.15;23.20;;;;;;;;;;5058299;28;20209;-66
2022/07/21 08:05:51;;;;;;;29.23;23.27;;;;;;;;;;5059672;28;20193;-65
2022/07/21 08:08:17;;;;;;;24.42;20.38;;;;;;;;;;5063325;28;20192;-65
2022/07/21 08:10:45;;;;;;;25.50;20.30;;;;;;;;;;5049465;28;20188;-66
2022/07/21 08:13:12;;;;;;;30.15;24.55;;;;;;;;;;5062895;28;20618;-66
2022/07/21 08:15:37;;;;;;;31.83;25.02;;;;;;;;;;5059911;28;20181;-65
2022/07/21 08:18:03;;;;;;;35.28;24.92;;;;;;;;;;5048878;28;20259;-65
2022/07/21 08:20:29;;;;;;;34.05;25.85;;;;;;;;;;5063997;28;20310;-65
2022/07/21 08:22:54;;;;;;;37.72;25.85;;;;;;;;;;5059213;28;20755;-66
2022/07/21 08:25:19;;;;;;;34.35;25.88;;;;;;;;;;5060241;28;20666;-64
2022/07/21 08:27:45;;;;;;;37.78;26.38;;;;;;;;;;5062821;28;20207;-66
2022/07/21 08:30:10;;;;;;;29.10;23.00;;;;;;;;;;5063928;28;20318;-66
2022/07/21 08:32:37;;;;;;;33.83;25.02;;;;;;;;;;5057872;28;20574;-65
2022/07/21 08:35:08;;;;;;;36.05;26.58;;;;;;;;;;5065897;28;20177;-65
2022/07/21 08:37:33;;;;;;;33.83;25.83;;;;;;;;;;5059218;28;20190;-66
2022/07/21 08:39:59;;;;;;;34.78;25.02;;;;;;;;;;5063015;28;20184;-65
2022/07/21 08:42:26;;;;;;;38.05;27.38;;;;;;;;;;5063242;28;20188;-66
2022/07/21 08:44:52;;;;;;;35.20;28.05;;;;;;;;;;5063342;28;20986;-66
2022/07/21 08:47:17;;;;;;;37.33;28.52;;;;;;;;;;5059669;28;20275;-65
2022/07/21 08:49:45;;;;;;;41.33;31.02;;;;;;;;;;5055940;28;20221;-66
2022/07/21 08:52:11;;;;;;;41.63;29.60;;;;;;;;;;5063694;28;20484;-66
2022/07/21 08:54:36;;;;;;;39.83;29.67;;;;;;;;;;5052616;28;20561;-66
2022/07/21 08:57:02;;;;;;;46.00;31.70;;;;;;;;;;5061622;28;20233;-68
2022/07/21 08:59:27;;;;;;;43.38;31.40;;;;;;;;;;5059589;28;20268;-65
2022/07/21 09:01:52;;;;;;;43.90;30.65;;;;;;;;;;5054900;28;20211;-66
2022/07/21 09:04:36;;;;;;;43.75;32.20;;;;;;;;;;5060467;28;20225;-65
2022/07/21 09:07:05;;;;;;;44.20;31.98;;;;;;;;;;5069004;28;20665;-65
2022/07/21 09:09:32;;;;;;;46.58;33.30;;;;;;;;;;5058729;28;20641;-65
2022/07/21 09:11:59;;;;;;;43.40;30.55;;;;;;;;;;5068510;28;20180;-65
2022/07/21 09:14:26;;;;;;;44.65;33.13;;;;;;;;;;5051120;28;20203;-65
2022/07/21 09:16:55;;;;;;;41.00;32.45;;;;;;;;;;5063946;28;20720;-64
2022/07/21 09:19:23;;;;;;;40.28;29.70;;;;;;;;;;5062645;28;20173;-64
2022/07/21 09:21:51;;;;;;;43.03;32.42;;;;;;;;;;5062582;28;20196;-65
2022/07/21 09:24:38;;;;;;;44.13;34.15;;;;;;;;;;5066572;28;20289;-65
2022/07/21 09:27:10;;;;;;;42.03;33.15;;;;;;;;;;5066312;28;20184;-65
2022/07/21 09:29:36;;;;;;;39.40;33.13;;;;;;;;;;5064234;28;20184;-64
2022/07/21 09:32:20;;;;;;;38.05;31.35;;;;;;;;;;5062112;28;20622;-65
2022/07/21 09:34:48;;;;;;;40.17;30.88;;;;;;;;;;5061136;28;20615;-65
2022/07/21 09:37:14;;;;;;;28.02;24.25;;;;;;;;;;5064591;28;20181;-65
2022/07/21 09:39:50;;;;;;;32.35;26.65;;;;;;;;;;5067300;28;20192;-65
2022/07/21 09:42:22;;;;;;;27.77;23.25;;;;;;;;;;5065909;28;20249;-66
2022/07/21 09:44:55;;;;;;;28.58;23.75;;;;;;;;;;5061597;28;20512;-65
2022/07/21 09:47:24;;;;;;;27.90;23.45;;;;;;;;;;5060304;28;20600;-65
2022/07/21 09:49:50;;;;;;;27.02;22.05;;;;;;;;;;5062739;28;20200;-65
2022/07/21 09:52:29;;;;;;;27.92;22.40;;;;;;;;;;5061117;28;20612;-65
2022/07/21 09:54:57;;;;;;;24.35;21.15;;;;;;;;;;5062769;28;20185;-66
2022/07/21 09:57:22;;;;;;;25.85;20.00;;;;;;;;;;5064278;28;20207;-65
2022/07/21 09:59:50;;;;;;;22.83;18.90;;;;;;;;;;5064986;28;20318;-65
2022/07/21 10:02:18;;;;;;;22.25;19.75;;;;;;;;;;5063646;28;20177;-66
2022/07/21 10:04:48;;;;;;;23.20;20.15;;;;;;;;;;5064211;28;20744;-66
2022/07/21 10:07:15;;;;;;;22.67;19.40;;;;;;;;;;5063085;28;20189;-66
2022/07/21 10:09:41;;;;;;;23.08;19.52;;;;;;;;;;5065087;28;20224;-65
2022/07/21 10:12:07;;;;;;;19.95;16.80;;;;;;;;;;5066010;28;20277;-65
2022/07/21 10:14:32;;;;;;;19.42;17.30;;;;;;;;;;5065124;28;20181;-65
2022/07/21 10:16:58;;;;;;;21.42;16.98;;;;;;;;;;5067824;28;20173;-65
2022/07/21 10:19:34;;;;;;;23.15;18.23;;;;;;;;;;5060446;28;20213;-65
2022/07/21 10:22:40;;;;;;;24.42;17.10;;;;;;;;;;5064111;28;20655;-67
2022/07/21 10:25:06;;;;;;;22.92;17.35;;;;;;;;;;5063896;28;20209;-65
2022/07/21 10:27:32;;;;;;;21.17;16.85;;;;;;;;;;5061401;28;20181;-66
2022/07/21 10:30:01;;;;;;;24.80;17.40;;;;;;;;;;5064487;28;20207;-66
2022/07/21 10:32:47;;;;;;;22.27;16.27;;;;;;;;;;4363036;28;10021518;-66
2022/07/21 10:35:28;;;;;;;22.05;18.08;;;;;;;;;;5059497;28;20173;-68
2022/07/21 10:37:55;;;;;;;21.27;17.58;;;;;;;;;;5059624;28;20268;-65
2022/07/21 10:40:20;;;;;;;21.20;17.90;;;;;;;;;;5061158;28;20197;-65
2022/07/21 10:43:05;;;;;;;21.60;17.63;;;;;;;;;;5058601;28;20698;-65
2022/07/21 10:45:32;;;;;;;19.60;16.40;;;;;;;;;;5060948;28;20189;-65
2022/07/21 10:47:59;;;;;;;18.13;15.15;;;;;;;;;;5045174;28;20544;-66
2022/07/21 10:50:31;;;;;;;21.90;15.95;;;;;;;;;;5059912;28;20188;-66
2022/07/21 10:52:59;;;;;;;21.77;16.17;;;;;;;;;;5043374;28;20189;-65
2022/07/21 10:55:26;;;;;;;19.67;15.88;;;;;;;;;;5045160;28;20181;-66
2022/07/21 10:58:23;;;;;;;17.65;15.80;;;;;;;;;;5048829;28;20193;-63
2022/07/21 11:00:52;;;;;;;21.15;15.40;;;;;;;;;;5052275;28;20185;-63
2022/07/21 11:03:22;;;;;;;21.55;16.90;;;;;;;;;;5050717;28;20293;-63
2022/07/21 11:06:05;;;;;;;22.92;16.55;;;;;;;;;;5056395;28;20655;-63
2022/07/21 11:08:33;;;;;;;21.15;16.80;;;;;;;;;;5047593;28;20704;-64
2022/07/21 11:11:09;;;;;;;21.63;17.52;;;;;;;;;;5048720;28;20268;-64
2022/07/21 11:13:58;;;;;;;22.10;17.27;;;;;;;;;;5054315;28;20197;-64
2022/07/21 11:16:49;;;;;;;21.27;17.33;;;;;;;;;;5051691;28;20193;-64
2022/07/21 11:19:52;;;;;;;22.48;17.60;;;;;;;;;;5055825;28;20552;-64
2022/07/21 11:22:29;;;;;;;24.02;17.23;;;;;;;;;;5050108;28;20693;-64
2022/07/21 11:24:55;;;;;;;21.77;17.23;;;;;;;;;;5062434;28;20272;-64
2022/07/21 11:27:22;;;;;;;22.65;16.67;;;;;;;;;;5055401;28;20272;-65
2022/07/21 11:29:50;;;;;;;22.73;17.27;;;;;;;;;;5064304;28;20204;-64
2022/07/21 11:32:17;;;;;;;19.90;16.45;;;;;;;;;;5057384;28;20209;-65
2022/07/21 11:35:00;;;;;;;22.98;15.98;;;;;;;;;;5065515;28;20666;-64
2022/07/21 11:37:31;;;;;;;21.33;15.65;;;;;;;;;;5060950;28;20191;-64
2022/07/21 11:39:57;;;;;;;24.25;15.77;;;;;;;;;;5054113;28;20180;-65
2022/07/21 11:42:24;;;;;;;19.42;15.40;;;;;;;;;;5058053;28;20196;-65
2022/07/21 11:44:50;;;;;;;20.02;15.25;;;;;;;;;;5053609;28;20242;-65
2022/07/21 11:47:15;;;;;;;17.58;14.55;;;;;;;;;;5047646;28;20217;-64
2022/07/21 11:49:42;;;;;;;19.30;14.77;;;;;;;;;;5065177;28;20706;-64
2022/07/21 11:52:11;;;;;;;23.02;13.43;;;;;;;;;;5066787;28;20207;-70
2022/07/21 11:54:42;;;;;;;23.25;12.88;;;;;;;;;;5061711;28;20260;-64
2022/07/21 11:57:08;;;;;;;17.20;13.57;;;;;;;;;;5051518;28;20243;-64
2022/07/21 11:59:35;;;;;;;20.80;14.90;;;;;;;;;;5059178;28;20222;-65
2022/07/21 12:02:07;;;;;;;18.45;15.45;;;;;;;;;;5048525;28;20668;-65
2022/07/21 12:05:09;;;;;;;19.27;14.68;;;;;;;;;;5057916;28;20243;-68
2022/07/21 12:07:40;;;;;;;14.18;10.75;;;;;;;;;;5042685;28;20196;-65
2022/07/21 12:10:11;;;;;;;14.07;10.30;;;;;;;;;;5050148;28;20192;-65
2022/07/21 12:12:46;;;;;;;11.95;10.18;;;;;;;;;;5052412;28;20294;-65
2022/07/21 12:15:18;;;;;;;9.40;8.02;;;;;;;;;;5052327;28;20276;-65
2022/07/21 12:17:52;;;;;;;9.88;8.57;;;;;;;;;;5052499;28;20576;-65
2022/07/21 12:20:26;;;;;;;11.05;7.97;;;;;;;;;;5047700;28;20229;-65
2022/07/21 12:22:54;;;;;;;7.38;5.57;;;;;;;;;;5053914;28;20219;-65
2022/07/21 12:25:34;;;;;;;6.90;5.50;;;;;;;;;;5055145;28;20278;-66
2022/07/21 12:28:01;;;;;;;5.93;5.15;;;;;;;;;;5052502;28;20533;-66
2022/07/21 12:30:34;;;;;;;9.35;4.93;;;;;;;;;;5046017;28;20196;-66
2022/07/21 12:33:06;;;;;;;4.22;3.83;;;;;;;;;;5049609;28;20665;-68
2022/07/21 12:35:33;;;;;;;3.45;3.15;;;;;;;;;;5046907;28;20242;-68
2022/07/21 12:38:01;;;;;;;5.03;4.40;;;;;;;;;;5051282;28;20595;-67
2022/07/21 12:40:28;;;;;;;5.05;4.10;;;;;;;;;;5053821;28;20228;-67
2022/07/21 12:43:26;;;;;;;4.70;3.97;;;;;;;;;;5055318;28;20565;-66
2022/07/21 12:46:14;;;;;;;5.60;4.35;;;;;;;;;;5019610;28;20280;-65
2022/07/21 12:48:41;;;;;;;4.90;4.40;;;;;;;;;;4350712;28;10000730;-66
2022/07/21 12:51:21;;;;;;;5.10;4.50;;;;;;;;;;5054954;28;20213;-66
2022/07/21 12:53:54;;;;;;;5.13;4.55;;;;;;;;;;5059710;28;20645;-66
2022/07/21 12:56:28;;;;;;;5.68;5.05;;;;;;;;;;5057790;28;20227;-68
2022/07/21 12:58:55;;;;;;;5.80;5.13;;;;;;;;;;4700430;28;10000539;-67
2022/07/21 13:01:23;;;;;;;6.75;4.60;;;;;;;;;;5057067;28;20272;-67
2022/07/21 13:03:49;;;;;;;7.68;5.25;;;;;;;;;;5057367;28;20201;-67
2022/07/21 13:06:16;;;;;;;6.13;5.28;;;;;;;;;;5052154;28;20279;-66
2022/07/21 13:08:43;;;;;;;6.75;5.55;;;;;;;;;;5059219;28;20470;-67
2022/07/21 13:11:10;;;;;;;5.38;4.85;;;;;;;;;;5054850;28;20184;-66
2022/07/21 13:13:36;;;;;;;5.32;4.82;;;;;;;;;;5052660;28;20200;-67
2022/07/21 13:16:01;;;;;;;5.30;4.80;;;;;;;;;;5058724;28;20181;-68
2022/07/21 13:18:27;;;;;;;5.53;5.03;;;;;;;;;;5061425;28;20192;-66
2022/07/21 13:20:53;;;;;;;5.47;4.97;;;;;;;;;;5058839;28;20192;-67
2022/07/21 13:23:19;;;;;;;5.57;5.07;;;;;;;;;;5053309;28;20232;-66
2022/07/21 13:25:45;;;;;;;6.15;4.80;;;;;;;;;;5058234;28;20192;-67
2022/07/21 13:28:11;;;;;;;5.55;4.90;;;;;;;;;;5054324;28;20212;-66
2022/07/21 13:30:36;;;;;;;5.85;5.35;;;;;;;;;;5055283;28;20216;-66
2022/07/21 13:33:02;;;;;;;5.80;5.20;;;;;;;;;;5056725;28;20681;-67
2022/07/21 13:35:27;;;;;;;6.43;5.35;;;;;;;;;;5062027;28;20242;-66
2022/07/21 13:37:54;;;;;;;6.20;5.60;;;;;;;;;;5060919;28;20184;-66
2022/07/21 13:40:19;;;;;;;6.13;5.50;;;;;;;;;;5052849;28;20185;-66
2022/07/21 13:42:45;;;;;;;5.43;4.93;;;;;;;;;;5057019;28;20545;-67
2022/07/21 13:45:11;;;;;;;7.10;5.25;;;;;;;;;;5059613;28;20211;-67
2022/07/21 13:47:37;;;;;;;5.82;4.90;;;;;;;;;;5056783;28;20185;-67
2022/07/21 13:50:03;;;;;;;5.10;4.60;;;;;;;;;;5061169;28;20627;-67
2022/07/21 13:52:28;;;;;;;4.82;4.32;;;;;;;;;;5055813;28;20263;-67
2022/07/21 13:54:54;;;;;;;5.25;4.20;;;;;;;;;;5059828;28;20261;-66
2022/07/21 13:57:19;;;;;;;4.90;4.40;;;;;;;;;;5058053;28;20201;-67
2022/07/21 13:59:45;;;;;;;4.45;4.05;;;;;;;;;;5050506;28;20189;-67
2022/07/21 14:02:10;;;;;;;4.40;3.85;;;;;;;;;;5057852;28;20613;-67
2022/07/21 14:04:35;;;;;;;4.30;3.95;;;;;;;;;;5066369;28;20228;-67
2022/07/21 14:07:00;;;;;;;4.10;3.70;;;;;;;;;;5053333;28;20237;-68
2022/07/21 14:09:26;;;;;;;5.38;4.10;;;;;;;;;;5049018;28;20253;-67
2022/07/21 14:11:52;;;;;;;3.88;3.47;;;;;;;;;;5058010;28;20234;-67
2022/07/21 14:14:21;;;;;;;3.83;3.53;;;;;;;;;;5061131;28;20569;-66
2022/07/21 14:16:47;;;;;;;4.13;3.78;;;;;;;;;;5063074;28;20188;-67
2022/07/21 14:19:12;;;;;;;4.68;3.80;;;;;;;;;;5060195;28;20197;-68
2022/07/21 14:21:37;;;;;;;3.78;3.47;;;;;;;;;;5060179;28;20254;-67
2022/07/21 14:26:47;;;;;;;4.07;3.67;;;;;;;;;;5050260;28;20328;-68
2022/07/21 14:29:12;;;;;;;3.72;3.42;;;;;;;;;;5055849;28;20264;-68